Terminal Aerodrome Forecast
Issued by NWS North Platte, NE

Home | Current Version | Previous Version | Text Only | Print | Product List | Glossary On
Versions: 1 2 3 4 5 6 7 8 9 10 11 12 13 14 15 16 17 18 19 20 21 22 23
812
FTUS43 KLBF 290352 AAC
TAFLBF
TAF AMD
KLBF 290352Z 2904/2924 31010KT P6SM SCT080 BKN110
      TEMPO 2904/2906 29011G20KT P6SM -TSRA BKN070CB
     FM291500 VRB05KT P6SM FEW200
     FM291800 13007KT P6SM FEW200=

USA.gov is the U.S. government's official web portal to all federal, state and local government web resources and services.